createdAt,value
2022-08-20T00:00:57.765Z,65.55
2022-08-20T00:04:03.803Z,65.67
2022-08-20T00:07:08.509Z,65.80
2022-08-20T00:10:10.393Z,66.12
2022-08-20T00:13:15.483Z,66.14
2022-08-20T00:16:22.962Z,66.00
2022-08-20T00:19:24.642Z,66.44
2022-08-20T00:22:28.793Z,66.93
2022-08-20T00:25:30.739Z,67.53
2022-08-20T00:28:32.659Z,67.45
2022-08-20T00:31:35.565Z,67.39
2022-08-20T00:34:39.792Z,67.43
2022-08-20T00:37:42.132Z,67.67
2022-08-20T00:40:53.964Z,67.78
2022-08-20T00:44:04.586Z,67.25
2022-08-20T00:47:06.417Z,67.60
2022-08-20T00:50:08.764Z,67.57
2022-08-20T00:53:10.459Z,67.49
2022-08-20T00:56:12.946Z,67.34
2022-08-20T00:59:18.907Z,66.93
2022-08-20T01:02:23.342Z,67.06
2022-08-20T01:05:27.869Z,67.21
2022-08-20T01:08:31.852Z,67.13
2022-08-20T01:11:37.051Z,67.13
2022-08-20T01:14:47.613Z,67.76
2022-08-20T01:17:53.318Z,67.94
2022-08-20T01:20:59.607Z,67.94
2022-08-20T01:24:06.817Z,67.66
2022-08-20T01:27:09.220Z,67.37
2022-08-20T01:30:11.704Z,67.81
2022-08-20T01:33:13.576Z,67.65
2022-08-20T01:36:18.810Z,68.19
2022-08-20T01:39:26.603Z,68.01
2022-08-20T01:42:37.773Z,67.91
2022-08-20T01:45:59.261Z,67.51
2022-08-20T01:49:11.853Z,67.93
2022-08-20T01:52:24.598Z,68.00
2022-08-20T01:55:29.524Z,67.89
2022-08-20T01:58:33.611Z,68.28
2022-08-20T02:01:46.244Z,68.29
2022-08-20T02:04:48.616Z,68.60
2022-08-20T02:07:50.515Z,68.95
2022-08-20T02:10:52.528Z,69.52
2022-08-20T02:13:54.684Z,69.55
2022-08-20T02:16:58.582Z,69.72
2022-08-20T02:20:13.362Z,69.76
2022-08-20T02:23:16.267Z,69.50
2022-08-20T02:26:19.235Z,69.93
2022-08-20T02:29:20.929Z,70.24
2022-08-20T02:32:24.162Z,69.81
2022-08-20T02:35:36.041Z,70.04
2022-08-20T02:38:38.953Z,70.08
2022-08-20T02:41:41.498Z,70.44
2022-08-20T02:44:43.566Z,70.41
2022-08-20T02:47:46.471Z,70.41
2022-08-20T02:50:55.308Z,70.50
2022-08-20T02:53:57.084Z,70.55
2022-08-20T02:56:58.700Z,71.18
2022-08-20T03:00:02.107Z,71.00
2022-08-20T03:03:04.080Z,71.51
2022-08-20T03:06:08.016Z,71.73
2022-08-20T03:09:09.681Z,71.81
2022-08-20T03:12:11.383Z,71.70
2022-08-20T03:15:17.582Z,71.85
2022-08-20T03:18:20.667Z,71.95
2022-08-20T03:21:22.289Z,72.51
2022-08-20T03:24:23.901Z,72.58
2022-08-20T03:27:25.657Z,72.70
2022-08-20T03:30:32.598Z,72.67
2022-08-20T03:33:34.911Z,73.14
2022-08-20T03:36:36.572Z,73.55
2022-08-20T03:39:39.199Z,73.37
2022-08-20T03:42:41.254Z,73.11
2022-08-20T03:45:44.762Z,73.16
2022-08-20T03:48:46.405Z,73.05
2022-08-20T03:51:57.686Z,73.31
2022-08-20T03:55:00.012Z,73.39
2022-08-20T03:58:06.272Z,73.28
2022-08-20T04:01:32.053Z,72.99
2022-08-20T04:04:29.556Z,72.51
2022-08-20T04:07:31.174Z,72.39
2022-08-20T04:10:32.827Z,71.87
2022-08-20T04:13:34.829Z,71.72
2022-08-20T04:16:41.827Z,72.35
2022-08-20T04:19:44.447Z,72.30
2022-08-20T04:22:50.861Z,72.21
2022-08-20T04:26:01.496Z,72.24
2022-08-20T04:29:03.771Z,71.99
2022-08-20T04:32:06.226Z,72.33
2022-08-20T04:35:11.759Z,72.32
2022-08-20T04:38:17.347Z,72.50
2022-08-20T04:41:23.658Z,72.61
2022-08-20T04:44:25.694Z,73.06
2022-08-20T04:47:34.614Z,73.08
2022-08-20T04:50:39.229Z,73.12
2022-08-20T04:53:41.913Z,73.26
2022-08-20T04:56:43.628Z,73.52
2022-08-20T04:59:45.307Z,73.59
2022-08-20T05:02:46.888Z,73.70
2022-08-20T05:05:49.069Z,73.76
2022-08-20T05:08:50.744Z,73.92
2022-08-20T05:11:52.404Z,74.16
2022-08-20T05:14:54.279Z,74.58
2022-08-20T05:18:02.505Z,74.58
2022-08-20T05:21:05.990Z,74.59
2022-08-20T05:24:08.263Z,74.59
2022-08-20T05:27:10.215Z,74.85
2022-08-20T05:30:33.492Z,74.61
2022-08-20T05:33:37.954Z,74.47
2022-08-20T05:36:41.840Z,74.69
2022-08-20T05:39:44.406Z,74.73
2022-08-20T05:42:46.010Z,74.83
2022-08-20T05:45:56.538Z,75.26
2022-08-20T05:49:00.032Z,75.28
2022-08-20T05:52:01.986Z,75.27
2022-08-20T05:55:05.923Z,75.08
2022-08-20T05:58:14.791Z,75.43
2022-08-20T06:01:16.564Z,75.14
2022-08-20T06:04:32.086Z,74.98
2022-08-20T06:07:33.765Z,74.73
2022-08-20T06:10:36.899Z,74.76
2022-08-20T06:13:39.138Z,74.67
2022-08-20T06:16:57.364Z,74.36
2022-08-20T06:20:02.962Z,74.06
2022-08-20T06:23:05.871Z,74.11
2022-08-20T06:26:09.259Z,73.82
2022-08-20T06:29:11.360Z,73.83
2022-08-20T06:32:13.263Z,73.27
2022-08-20T06:35:19.444Z,73.11
2022-08-20T06:38:21.696Z,72.94
2022-08-20T06:41:23.373Z,72.87
2022-08-20T06:44:38.069Z,72.92
2022-08-20T06:47:44.894Z,72.37
2022-08-20T06:50:47.523Z,72.64
2022-08-20T06:53:49.734Z,72.01
2022-08-20T06:56:54.138Z,71.72
2022-08-20T06:59:55.814Z,72.41
2022-08-20T07:03:00.485Z,72.21
2022-08-20T07:06:02.172Z,71.77
2022-08-20T07:09:03.931Z,71.62
2022-08-20T07:12:06.404Z,71.07
2022-08-20T07:15:10.989Z,70.32
2022-08-20T07:18:13.997Z,71.50
2022-08-20T07:21:17.456Z,72.42
2022-08-20T07:24:19.271Z,71.54
2022-08-20T07:27:23.048Z,71.20
2022-08-20T07:30:56.895Z,71.26
2022-08-20T07:33:59.877Z,71.28
2022-08-20T07:37:04.061Z,70.13
2022-08-20T07:40:07.288Z,69.60
2022-08-20T07:43:10.700Z,70.28
2022-08-20T07:46:17.994Z,70.86
2022-08-20T07:49:22.581Z,71.26
2022-08-20T07:52:24.138Z,71.38
2022-08-20T07:55:26.241Z,71.66
2022-08-20T07:58:33.186Z,72.03
2022-08-20T08:01:35.242Z,70.85
2022-08-20T08:04:37.146Z,70.72
2022-08-20T08:07:39.429Z,70.31
2022-08-20T08:10:47.532Z,70.32
2022-08-20T08:14:05.319Z,69.64
2022-08-20T08:17:08.023Z,70.17
2022-08-20T08:20:12.295Z,69.59
2022-08-20T08:23:24.676Z,69.47
2022-08-20T08:26:33.294Z,69.59
2022-08-20T08:29:36.201Z,69.99
2022-08-20T08:32:58.458Z,70.08
2022-08-20T08:36:12.915Z,70.58
2022-08-20T08:39:14.572Z,70.94
2022-08-20T08:42:27.069Z,71.22
2022-08-20T08:45:38.074Z,71.62
2022-08-20T08:48:47.158Z,72.06
2022-08-20T08:51:51.526Z,71.65
2022-08-20T08:54:56.900Z,70.30
2022-08-20T08:58:16.529Z,70.85
2022-08-20T09:01:53.729Z,71.39
2022-08-20T09:04:44.681Z,72.20
2022-08-20T09:07:51.209Z,72.10
2022-08-20T09:10:55.581Z,72.14
2022-08-20T09:13:58.596Z,71.46
2022-08-20T09:17:00.210Z,71.91
2022-08-20T09:20:02.141Z,71.70
2022-08-20T09:23:06.780Z,70.67
2022-08-20T09:26:09.059Z,70.74
2022-08-20T09:29:10.927Z,71.02
2022-08-20T09:32:21.048Z,70.66
2022-08-20T09:35:23.031Z,70.21
2022-08-20T09:38:24.681Z,70.81
2022-08-20T09:41:26.344Z,69.75
2022-08-20T09:44:27.964Z,69.09
2022-08-20T09:47:29.631Z,68.32
2022-08-20T09:50:33.863Z,67.25
2022-08-20T09:53:35.811Z,66.77
2022-08-20T09:56:37.472Z,67.15
2022-08-20T09:59:39.467Z,67.54
2022-08-20T10:02:41.771Z,68.16
2022-08-20T10:05:43.396Z,68.32
2022-08-20T10:08:45.867Z,68.45
2022-08-20T10:11:47.547Z,68.56
2022-08-20T10:14:49.206Z,67.30
2022-08-20T10:17:51.021Z,67.72
2022-08-20T10:20:52.778Z,67.71
2022-08-20T10:23:54.420Z,67.18
2022-08-20T10:26:58.701Z,66.81
2022-08-20T10:30:00.310Z,67.09
2022-08-20T10:33:02.156Z,67.83
2022-08-20T10:36:21.959Z,68.04
2022-08-20T10:39:23.655Z,68.73
2022-08-20T10:42:25.314Z,71.95
2022-08-20T10:45:26.941Z,75.12
2022-08-20T10:48:29.562Z,78.42
2022-08-20T10:51:32.660Z,83.01
2022-08-20T10:54:34.602Z,84.42
2022-08-20T10:57:39.395Z,85.23
2022-08-20T11:00:41.720Z,87.01
2022-08-20T11:06:45.015Z,89.64
2022-08-20T11:09:48.803Z,90.83
2022-08-20T11:12:50.457Z,91.81
2022-08-20T11:15:52.093Z,91.37
2022-08-20T11:18:53.713Z,91.90
2022-08-20T11:21:56.266Z,91.76
2022-08-20T11:24:57.874Z,91.91
2022-08-20T11:27:59.587Z,92.87
2022-08-20T11:31:01.876Z,93.01
2022-08-20T11:34:03.543Z,94.63
2022-08-20T11:37:05.187Z,91.67
2022-08-20T11:40:12.331Z,90.62
2022-08-20T11:43:16.407Z,90.52
2022-08-20T11:46:18.810Z,91.17
2022-08-20T11:49:20.442Z,91.65
2022-08-20T11:52:22.060Z,92.08
2022-08-20T11:55:28.560Z,91.80
2022-08-20T11:58:33.787Z,91.74
2022-08-20T12:01:35.469Z,92.32
2022-08-20T12:04:37.045Z,90.90
2022-08-20T12:07:39.093Z,88.68
2022-08-20T12:10:40.740Z,88.13
2022-08-20T12:13:47.290Z,87.91
2022-08-20T12:16:49.315Z,91.35
2022-08-20T12:19:53.138Z,92.10
2022-08-20T12:22:54.744Z,90.96
2022-08-20T12:25:56.477Z,90.93
2022-08-20T12:29:00.947Z,91.36
2022-08-20T12:32:03.381Z,89.07
2022-08-20T12:35:07.307Z,88.40
2022-08-20T12:38:09.007Z,89.36
2022-08-20T12:41:11.862Z,90.18
2022-08-20T12:44:13.548Z,90.37
2022-08-20T12:47:27.419Z,90.85
2022-08-20T12:50:31.596Z,90.93
2022-08-20T12:53:33.509Z,89.95
2022-08-20T12:56:36.191Z,87.08
2022-08-20T12:59:37.781Z,89.00
2022-08-20T13:02:41.225Z,89.16
2022-08-20T13:05:43.074Z,88.95
2022-08-20T13:08:44.660Z,89.63
2022-08-20T13:11:46.389Z,90.19
2022-08-20T13:14:48.001Z,89.73
2022-08-20T13:17:57.470Z,89.43
2022-08-20T13:20:59.057Z,88.79
2022-08-20T13:24:00.716Z,89.44
2022-08-20T13:27:13.085Z,89.54
2022-08-20T13:30:20.126Z,89.04
2022-08-20T13:33:21.931Z,88.99
2022-08-20T13:36:23.611Z,88.29
2022-08-20T13:39:25.303Z,85.80
2022-08-20T13:42:28.071Z,86.83
2022-08-20T13:45:29.646Z,84.99
2022-08-20T13:48:31.255Z,85.66
2022-08-20T13:51:32.835Z,86.72
2022-08-20T13:54:34.644Z,87.15
2022-08-20T13:57:36.812Z,86.67
2022-08-20T14:00:38.479Z,84.30
2022-08-20T14:03:42.783Z,83.79
2022-08-20T14:06:44.467Z,82.16
2022-08-20T14:09:49.773Z,83.30
2022-08-20T14:12:51.748Z,83.17
2022-08-20T14:15:54.166Z,83.18
2022-08-20T14:18:56.443Z,84.30
2022-08-20T14:21:58.232Z,84.44
2022-08-20T14:25:03.482Z,83.85
2022-08-20T14:28:13.868Z,84.08
2022-08-20T14:31:15.516Z,84.51
2022-08-20T14:34:17.435Z,85.52
2022-08-20T14:37:22.715Z,84.07
2022-08-20T14:40:26.841Z,84.29
2022-08-20T14:43:28.520Z,82.90
2022-08-20T14:46:30.175Z,82.27
2022-08-20T14:49:33.081Z,82.31
2022-08-20T14:52:36.651Z,81.59
2022-08-20T14:55:38.741Z,80.50
2022-08-20T14:58:40.313Z,78.88
2022-08-20T15:01:42.122Z,76.68
2022-08-20T15:04:45.414Z,76.70
2022-08-20T15:07:54.374Z,77.92
2022-08-20T15:10:56.105Z,77.04
2022-08-20T15:13:57.788Z,77.24
2022-08-20T15:16:59.402Z,77.06
2022-08-20T15:20:11.568Z,77.11
2022-08-20T15:23:23.050Z,76.92
2022-08-20T15:26:24.745Z,76.65
2022-08-20T15:29:26.343Z,74.98
2022-08-20T15:32:28.031Z,74.99
2022-08-20T15:35:29.763Z,76.74
2022-08-20T15:38:32.985Z,76.93
2022-08-20T15:41:34.739Z,75.91
2022-08-20T15:44:37.749Z,75.67
2022-08-20T15:48:06.333Z,74.31
2022-08-20T15:51:07.901Z,74.86
2022-08-20T15:54:26.205Z,74.93
2022-08-20T15:57:55.403Z,75.94
2022-08-20T16:01:24.226Z,75.57
2022-08-20T16:04:41.771Z,77.25
2022-08-20T16:08:01.374Z,76.69
2022-08-20T16:11:21.707Z,76.12
2022-08-20T16:14:31.054Z,75.99
2022-08-20T16:18:24.284Z,76.04
2022-08-20T16:21:34.634Z,73.20
2022-08-20T16:24:36.320Z,71.15
2022-08-20T16:27:52.942Z,71.76
2022-08-20T16:31:06.375Z,74.18
2022-08-20T16:34:33.164Z,75.30
2022-08-20T16:38:23.395Z,74.34
2022-08-20T16:41:38.652Z,75.26
2022-08-20T16:44:44.837Z,75.53
2022-08-20T16:47:48.119Z,76.82
2022-08-20T16:50:58.937Z,76.28
2022-08-20T16:54:00.654Z,75.91
2022-08-20T16:57:05.522Z,76.90
2022-08-20T17:00:16.322Z,76.73
2022-08-20T17:03:33.583Z,76.86
2022-08-20T17:06:49.390Z,76.13
2022-08-20T17:09:52.193Z,76.30
2022-08-20T17:13:14.801Z,78.74
2022-08-20T17:16:18.459Z,79.36
2022-08-20T17:19:29.470Z,80.23
2022-08-20T17:22:41.522Z,80.22
2022-08-20T17:25:44.522Z,80.61
2022-08-20T17:28:53.870Z,81.81
2022-08-20T17:32:21.840Z,83.30
2022-08-20T17:35:30.119Z,83.52
2022-08-20T17:38:39.892Z,83.72
2022-08-20T17:41:48.058Z,82.66
2022-08-20T17:45:05.845Z,81.99
2022-08-20T17:48:15.374Z,82.86
2022-08-20T17:51:23.568Z,83.31
2022-08-20T17:54:34.389Z,84.60
2022-08-20T17:57:40.124Z,85.64
2022-08-20T18:00:43.546Z,84.84
2022-08-20T18:03:45.205Z,85.27
2022-08-20T18:06:54.884Z,85.38
2022-08-20T18:10:10.490Z,85.97
2022-08-20T18:13:18.407Z,85.69
2022-08-20T18:16:31.251Z,85.79
2022-08-20T18:19:48.244Z,86.15
2022-08-20T18:22:57.364Z,85.92
2022-08-20T18:26:21.323Z,84.52
2022-08-20T18:29:28.254Z,83.98
2022-08-20T18:32:36.801Z,83.71
2022-08-20T18:35:45.790Z,81.32
2022-08-20T18:38:57.053Z,81.07
2022-08-20T18:41:58.711Z,81.17
2022-08-20T18:45:00.818Z,81.14
2022-08-20T18:48:03.894Z,81.55
2022-08-20T18:51:19.059Z,82.70
2022-08-20T18:54:30.687Z,83.31
2022-08-20T18:57:41.737Z,83.61
2022-08-20T19:00:48.822Z,82.93
2022-08-20T19:04:04.845Z,81.69
2022-08-20T19:07:17.502Z,81.10
2022-08-20T19:10:46.736Z,80.30
2022-08-20T19:13:53.703Z,78.99
2022-08-20T19:17:10.587Z,77.59
2022-08-20T19:20:25.455Z,78.56
2022-08-20T19:23:29.835Z,79.44
2022-08-20T19:26:39.393Z,79.34
2022-08-20T19:29:48.685Z,79.31
2022-08-20T19:32:52.917Z,79.48
2022-08-20T19:35:54.615Z,78.89
2022-08-20T19:39:00.804Z,80.15
2022-08-20T19:42:14.481Z,80.56
2022-08-20T19:45:26.003Z,80.91
2022-08-20T19:48:41.448Z,80.53
2022-08-20T19:52:08.987Z,80.71
2022-08-20T19:55:29.807Z,80.55
2022-08-20T19:58:33.245Z,80.57
2022-08-20T20:01:36.289Z,79.18
2022-08-20T20:04:41.133Z,78.59
2022-08-20T20:07:58.526Z,79.33
2022-08-20T20:11:01.053Z,79.25
2022-08-20T20:14:12.327Z,79.27
2022-08-20T20:17:23.111Z,79.94
2022-08-20T20:20:57.142Z,80.32
2022-08-20T20:24:01.088Z,79.96
2022-08-20T20:27:02.818Z,79.35
2022-08-20T20:30:12.513Z,79.15
2022-08-20T20:33:35.560Z,79.12
2022-08-20T20:36:43.928Z,79.12
2022-08-20T20:39:45.873Z,79.68
2022-08-20T20:43:07.831Z,80.58
2022-08-20T20:46:25.074Z,80.82
2022-08-20T20:49:29.387Z,80.89
2022-08-20T20:52:37.604Z,81.01
2022-08-20T20:55:39.863Z,80.88
2022-08-20T20:58:41.497Z,79.92
2022-08-20T21:01:55.384Z,80.07
2022-08-20T21:04:58.368Z,80.56
2022-08-20T21:08:02.437Z,80.73
2022-08-20T21:11:04.140Z,81.03
2022-08-20T21:14:05.844Z,81.44
2022-08-20T21:17:11.704Z,81.64
2022-08-20T21:20:13.574Z,82.16
2022-08-20T21:23:15.232Z,80.97
2022-08-20T21:26:16.832Z,81.14
2022-08-20T21:29:30.456Z,80.20
2022-08-20T21:32:33.870Z,80.88
2022-08-20T21:35:35.557Z,82.14
2022-08-20T21:38:37.215Z,82.21
2022-08-20T21:41:42.653Z,82.57
2022-08-20T21:44:49.497Z,82.73
2022-08-20T21:47:51.489Z,83.20
2022-08-20T21:50:53.087Z,83.14
2022-08-20T21:53:55.159Z,83.29
2022-08-20T21:57:18.371Z,83.23
2022-08-20T22:00:45.485Z,82.83
2022-08-20T22:03:49.507Z,82.69
2022-08-20T22:06:52.158Z,82.61
2022-08-20T22:09:53.843Z,83.07
2022-08-20T22:12:55.768Z,83.37
2022-08-20T22:15:59.431Z,83.13
2022-08-20T22:19:01.202Z,83.35
2022-08-20T22:22:03.058Z,83.44
2022-08-20T22:25:05.183Z,83.86
2022-08-20T22:28:11.945Z,84.23
2022-08-20T22:31:15.802Z,84.08
2022-08-20T22:34:19.743Z,83.54
2022-08-20T22:37:21.837Z,83.57
2022-08-20T22:40:24.247Z,83.83
2022-08-20T22:43:25.846Z,84.42
2022-08-20T22:46:32.258Z,84.96
2022-08-20T22:49:35.050Z,84.77
2022-08-20T22:52:39.222Z,85.14
2022-08-20T22:55:41.335Z,85.10
2022-08-20T22:58:43.386Z,85.18
2022-08-20T23:01:48.134Z,84.62
2022-08-20T23:04:50.111Z,84.57
2022-08-20T23:07:56.662Z,84.51
2022-08-20T23:10:58.441Z,84.77
2022-08-20T23:14:00.132Z,84.60
2022-08-20T23:17:10.122Z,84.52
2022-08-20T23:20:17.151Z,84.61
2022-08-20T23:23:19.024Z,84.42
2022-08-20T23:26:22.658Z,84.43
2022-08-20T23:29:27.146Z,85.09
2022-08-20T23:32:28.866Z,85.14
2022-08-20T23:35:33.036Z,84.85
2022-08-20T23:38:35.609Z,85.12
2022-08-20T23:41:37.243Z,85.13
2022-08-20T23:44:49.616Z,85.17
2022-08-20T23:47:52.087Z,84.96
2022-08-20T23:50:53.700Z,85.27
2022-08-20T23:53:55.707Z,85.25
2022-08-20T23:56:58.904Z,85.32
